Quincy, MA (02169)

5:50 PM EDT on May 25, 2015 (GMT -0400)
KMAQUINC2 | | Change Station
CLOSE
Current Station
Personal Weather Station
Location: Quincy, MA
Elevation: 134 ft
Nearby Weather Stations

Elev 134 ft 42.25 °N, 71.01 °W | Updated 6 minutes ago

Mostly Cloudy
Mostly Cloudy
77.4 °F
Feels Like 79 °F
N
0.0
Wind Variable Wind from NNW
Gusts 5.0 mph

Today
High -- | Low -- °F
--% Chance of Precip.
Yesterday
High -- | Low -- °F
Precip. -- in
5:14 AM 8:07 PM
First Quarter, 52% visible
Pressure 30.16 in
Visibility 10.0 miles
Clouds Few 11000 ft
Mostly Cloudy 16000 ft
Heat Index 79 °F
Dew Point 56 °F
Humidity 48%
Rainfall 0.00 in
Snow Depth Not available.
UV 2 out of 12
Pollen 9.50 out of 12
Air Quality Not available.
Flu Activity Local Activity
METAR KBOS 252054Z 18013KT 10SM FEW110 BKN160 26/13 A3016 RMK AO2 SLP212 T02560128 58015

More Conditions Fewer Conditions

Pressure 30.16 in
Visibility 10.0 miles
Clouds Few 11000 ft
Mostly Cloudy 16000 ft
Heat Index 79 °F
Dew Point 56 °F
Humidity 48%
Rainfall 0.00 in
Snow Depth Not available.
UV 2 out of 12
Pollen 9.50 out of 12
Air Quality Not available.
Flu Activity Local Activity
METAR KBOS 252054Z 18013KT 10SM FEW110 BKN160 26/13 A3016 RMK AO2 SLP212 T02560128 58015

More Conditions Fewer Conditions

10-Day Weather Forecast

Almanac

Astronomy

May. 25, 2015 Rise Set
Actual Time
Civil Twilight
Nautical Twilight
Astronomical Twilight
Moon
Length of Visible Light
Length of Day
Tomorrow will be .
, % of the Moon is Illuminated

Today's Extremes

State Highs State Lows

Community

WunderPhotos

Upload Photos

1,824,140 photos uploaded!

WunderBlogs® & News

Nearby

Air Quality

  Air Quality AQ Index Pollutant
Not available.

Snow Depth

Station Depth Elevation

Earthquake Activity

City Distance Mag. Time & Date
Minimum magnitude displayed is 2.5.

Coastal Water Temperatures

Place Temperature

Stations

Nearby Weather Stations

Station Location Temp. Windchill Dew Point Humidity Wind Precip. Elev Updated Type